Time;durP1;ratioP1;P1;durP2;ratioP2;P2;SDS_P1;SDS_P2;PMS_P1;PMS_P2;Temp;Humidity;BMP_temperature;BMP_pressure;BME280_temperature;BME280_humidity;BME280_pressure;Samples;Min_cycle;Max_cycle;Signal;HPM_P1;HPM_P2
2023/10/14 00:00:41;;;;;;;3.77;2.27;;;;;;;21.12;42.32;97388.94;5039932;28;20215;-80
2023/10/14 00:03:24;;;;;;;3.57;2.70;;;;;;;21.15;43.14;97388.53;5039303;28;20215;-80
2023/10/14 00:05:50;;;;;;;2.93;2.50;;;;;;;21.09;44.85;97389.28;5040430;28;20239;-80
2023/10/14 00:08:17;;;;;;;5.10;2.90;;;;;;;21.05;45.25;97388.03;5039988;28;20273;-80
2023/10/14 00:10:43;;;;;;;3.80;2.67;;;;;;;21.02;45.29;97393.78;5039453;28;20236;-80
2023/10/14 00:13:16;;;;;;;4.87;2.77;;;;;;;20.91;45.46;97391.56;5038393;28;20276;-80
2023/10/14 00:15:42;;;;;;;3.73;2.33;;;;;;;20.84;45.63;97396.00;5039289;28;20592;-80
2023/10/14 00:18:10;;;;;;;5.37;2.50;;;;;;;20.83;46.08;97398.84;5039533;28;20231;-80
2023/10/14 00:20:37;;;;;;;4.50;3.00;;;;;;;20.83;46.02;97404.22;5039430;28;20295;-80
2023/10/14 00:23:06;;;;;;;4.40;3.10;;;;;;;20.93;46.53;97400.28;5039720;28;20219;-80
2023/10/14 00:25:33;;;;;;;5.83;3.20;;;;;;;21.10;49.53;97420.53;5039800;28;20209;-80
2023/10/14 00:28:05;;;;;;;5.67;3.70;;;;;;;21.16;50.00;97427.81;5039008;28;20621;-80
2023/10/14 00:30:31;;;;;;;5.90;3.13;;;;;;;21.14;50.23;97424.50;5039597;28;20232;-80
2023/10/14 00:33:00;;;;;;;6.47;3.63;;;;;;;21.13;50.41;97428.22;5038765;28;20209;-80
2023/10/14 00:35:28;;;;;;;5.33;3.17;;;;;;;21.11;50.46;97430.28;5038496;28;20730;-80
2023/10/14 00:37:55;;;;;;;4.70;3.00;;;;;;;21.08;50.65;97414.50;5037671;28;20687;-80
2023/10/14 00:40:23;;;;;;;4.83;3.43;;;;;;;21.06;50.40;97421.94;5037607;28;20259;-80
2023/10/14 00:42:51;;;;;;;5.20;3.23;;;;;;;21.15;49.10;97404.66;5038005;28;20240;-80
2023/10/14 00:45:20;;;;;;;4.90;3.30;;;;;;;21.14;48.94;97386.88;5039517;28;20208;-80
2023/10/14 00:47:49;;;;;;;5.43;3.00;;;;;;;21.14;50.01;97386.88;5039033;28;20215;-80
2023/10/14 00:50:28;;;;;;;5.37;3.17;;;;;;;21.14;50.87;97391.41;5040300;28;20233;-80
2023/10/14 00:52:57;;;;;;;5.23;3.50;;;;;;;21.14;51.56;97400.31;5038603;28;20223;-80
2023/10/14 00:55:27;;;;;;;6.20;3.60;;;;;;;21.07;52.00;97393.19;5039325;28;20626;-80
2023/10/14 00:57:55;;;;;;;4.60;3.30;;;;;;;21.01;52.51;97394.78;5039326;28;20639;-80
2023/10/14 01:00:33;;;;;;;4.33;3.40;;;;;;;21.01;52.70;97391.25;5040719;28;20258;-80
2023/10/14 01:03:09;;;;;;;4.70;3.33;;;;;;;20.96;53.11;97389.16;5040706;28;20197;-80
2023/10/14 01:05:35;;;;;;;6.07;3.47;;;;;;;21.01;53.76;97402.84;5039810;28;20208;-80
2023/10/14 01:08:11;;;;;;;5.30;3.63;;;;;;;21.03;53.89;97400.00;5037731;28;20224;-80
2023/10/14 01:10:38;;;;;;;6.73;3.60;;;;;;;21.09;54.42;97401.91;5039893;28;20324;-81
2023/10/14 01:13:09;;;;;;;5.20;3.67;;;;;;;21.04;54.78;97404.34;5037722;28;20208;-81
2023/10/14 01:15:43;;;;;;;5.03;4.10;;;;;;;21.01;55.35;97397.47;5038391;28;20675;-81
2023/10/14 01:18:11;;;;;;;6.00;3.87;;;;;;;21.00;56.10;97385.06;5037473;28;20822;-81
2023/10/14 01:20:38;;;;;;;5.50;4.07;;;;;;;21.03;56.63;97395.44;5037656;28;20235;-80
2023/10/14 01:23:12;;;;;;;5.00;3.77;;;;;;;21.04;57.25;97410.53;5037392;28;20726;-80
2023/10/14 01:25:43;;;;;;;9.17;4.40;;;;;;;20.96;58.04;97399.06;5037514;28;20216;-81
2023/10/14 01:28:12;;;;;;;8.20;4.13;;;;;;;20.92;59.64;97393.22;5036649;28;20208;-80
2023/10/14 01:30:55;;;;;;;8.00;4.30;;;;;;;20.90;60.50;97397.97;5036348;28;20687;-81
2023/10/14 01:33:24;;;;;;;6.50;4.43;;;;;;;20.85;61.69;97403.03;5036441;28;20205;-80
2023/10/14 01:35:52;;;;;;;6.00;4.50;;;;;;;20.83;61.99;97404.22;5037045;28;20593;-81
2023/10/14 01:38:23;;;;;;;6.77;4.33;;;;;;;20.73;62.81;97409.88;5036689;28;20204;-81
2023/10/14 01:40:50;;;;;;;5.67;4.70;;;;;;;20.66;63.78;97422.41;5036814;28;20298;-80
2023/10/14 01:43:16;;;;;;;8.30;5.20;;;;;;;20.69;63.87;97400.56;5035327;28;20217;-80
2023/10/14 01:45:59;;;;;;;7.13;4.90;;;;;;;20.65;64.19;97404.63;5036694;28;20220;-81
2023/10/14 01:48:31;;;;;;;6.70;4.97;;;;;;;20.59;65.19;97396.47;5037038;28;20212;-80
2023/10/14 01:50:58;;;;;;;5.63;4.77;;;;;;;20.55;65.54;97396.00;5036775;28;20229;-81
2023/10/14 01:53:28;;;;;;;7.03;5.17;;;;;;;20.55;65.75;97409.44;5035672;28;20576;-81
2023/10/14 01:55:55;;;;;;;6.77;4.87;;;;;;;20.52;66.65;97412.50;5036974;28;20723;-81
2023/10/14 01:58:29;;;;;;;7.17;4.63;;;;;;;20.50;66.75;97413.69;5036986;28;20564;-81
2023/10/14 02:00:58;;;;;;;6.07;4.70;;;;;;;20.45;67.39;97416.09;5036447;28;20235;-81
2023/10/14 02:03:26;;;;;;;6.53;4.90;;;;;;;20.32;68.20;97406.00;5035855;28;20216;-81
2023/10/14 02:05:58;;;;;;;6.30;4.80;;;;;;;20.32;69.05;97410.53;5037038;28;20189;-81
2023/10/14 02:08:26;;;;;;;6.93;4.50;;;;;;;20.27;69.83;97405.72;5036723;28;20222;-80
2023/10/14 02:10:54;;;;;;;8.07;4.60;;;;;;;20.13;71.08;97395.81;5036778;28;20232;-81
2023/10/14 02:13:22;;;;;;;5.13;4.30;;;;;;;20.12;71.47;97402.19;5035489;28;20232;-81
2023/10/14 02:15:50;;;;;;;6.27;4.77;;;;;;;20.11;71.60;97394.34;5036849;28;20250;-81
2023/10/14 02:18:21;;;;;;;6.97;4.77;;;;;;;20.05;72.27;97384.31;5036605;28;20270;-81
2023/10/14 02:23:43;;;;;;;6.07;4.43;;;;;;;19.94;73.22;97376.69;5035602;28;20323;-80
2023/10/14 02:26:15;;;;;;;7.50;4.77;;;;;;;19.89;74.20;97387.97;5036414;28;20212;-81
2023/10/14 02:28:45;;;;;;;6.67;4.60;;;;;;;19.85;74.41;97386.66;5035690;28;20275;-81
2023/10/14 02:31:24;;;;;;;5.90;4.93;;;;;;;19.90;74.37;97373.53;5035499;28;20698;-81
2023/10/14 02:33:51;;;;;;;6.80;4.37;;;;;;;19.95;74.65;97370.31;5035654;28;20612;-81
2023/10/14 02:36:18;;;;;;;4.57;4.17;;;;;;;19.91;74.91;97375.19;5035638;28;20232;-80
2023/10/14 02:38:52;;;;;;;7.00;5.37;;;;;;;19.86;75.39;97366.88;5035649;28;20209;-81
2023/10/14 02:41:18;;;;;;;7.67;5.07;;;;;;;19.87;75.43;97368.53;5035750;28;20224;-81
2023/10/14 02:43:48;;;;;;;7.13;4.60;;;;;;;19.86;75.45;97361.50;5037435;28;20227;-81
2023/10/14 02:46:20;;;;;;;7.17;5.20;;;;;;;19.80;76.05;97351.50;5039705;28;20536;-81
2023/10/14 02:49:02;;;;;;;7.87;4.60;;;;;;;19.73;76.54;97355.06;5039862;28;20216;-81
2023/10/14 02:51:35;;;;;;;7.73;4.90;;;;;;;19.72;76.59;97351.59;5039846;28;20256;-80
2023/10/14 02:54:05;;;;;;;6.67;5.27;;;;;;;19.75;76.79;97347.72;5040627;28;20251;-81
2023/10/14 02:56:45;;;;;;;8.07;5.03;;;;;;;19.78;76.34;97345.50;5040423;28;20213;-81
2023/10/14 02:59:15;;;;;;;8.97;5.50;;;;;;;19.78;76.25;97337.44;5040338;28;20235;-81
2023/10/14 03:01:50;;;;;;;6.00;4.80;;;;;;;19.76;76.40;97344.81;5039892;28;20225;-81
2023/10/14 03:04:19;;;;;;;7.23;5.23;;;;;;;19.76;76.29;97352.88;5040420;28;20705;-81
2023/10/14 03:06:53;;;;;;;5.83;4.87;;;;;;;19.77;76.33;97359.91;5040693;28;20208;-81
2023/10/14 03:09:32;;;;;;;7.13;5.30;;;;;;;19.72;76.45;97365.00;5040620;28;20251;-81
2023/10/14 03:12:00;;;;;;;6.67;5.00;;;;;;;19.71;76.67;97357.97;5039726;28;20323;-81
2023/10/14 03:14:26;;;;;;;9.00;5.30;;;;;;;19.74;76.68;97344.19;5040381;28;20212;-81
2023/10/14 03:16:53;;;;;;;8.20;5.53;;;;;;;19.70;76.89;97356.28;5040221;28;20209;-81
2023/10/14 03:19:20;;;;;;;7.27;5.10;;;;;;;19.74;76.79;97340.69;5039770;28;20216;-80
2023/10/14 03:21:58;;;;;;;8.70;4.97;;;;;;;19.74;76.50;97336.13;5039504;28;20232;-81
2023/10/14 03:24:29;;;;;;;5.90;4.73;;;;;;;19.74;76.66;97341.50;5040108;28;20201;-81
2023/10/14 03:27:02;;;;;;;6.90;5.10;;;;;;;19.67;77.14;97340.56;5039937;28;20212;-81
2023/10/14 03:29:29;;;;;;;6.87;5.30;;;;;;;19.65;77.20;97342.59;5040471;28;20216;-81
2023/10/14 03:31:56;;;;;;;7.50;5.23;;;;;;;19.68;77.10;97342.22;5039280;28;20358;-80
2023/10/14 03:34:29;;;;;;;5.60;5.10;;;;;;;19.67;77.25;97340.56;5040733;28;20212;-80
2023/10/14 03:37:00;;;;;;;7.57;5.07;;;;;;;19.67;77.01;97345.94;5041129;28;20303;-80
2023/10/14 03:39:40;;;;;;;7.67;4.80;;;;;;;19.71;77.07;97341.88;5040728;28;20208;-81
2023/10/14 03:42:11;;;;;;;6.07;5.00;;;;;;;19.72;76.83;97331.97;5039596;28;20228;-81
2023/10/14 03:44:41;;;;;;;6.97;5.30;;;;;;;19.81;76.11;97326.34;5040294;28;20272;-81
2023/10/14 03:47:14;;;;;;;6.30;4.43;;;;;;;19.85;75.72;97316.94;5040136;28;20212;-81
2023/10/14 03:49:41;;;;;;;7.53;4.97;;;;;;;19.92;75.41;97317.84;5040308;28;20303;-81
2023/10/14 03:52:10;;;;;;;7.93;4.80;;;;;;;19.95;75.08;97314.81;5039608;28;20244;-81
2023/10/14 03:54:42;;;;;;;7.30;4.77;;;;;;;20.01;74.42;97303.38;5039536;28;20208;-81
2023/10/14 03:57:14;;;;;;;7.93;5.13;;;;;;;20.03;74.62;97301.31;5039732;28;20205;-80
2023/10/14 03:59:42;;;;;;;6.27;5.07;;;;;;;19.99;74.78;97302.69;5040230;28;20413;-81
2023/10/14 04:02:11;;;;;;;8.23;5.00;;;;;;;19.99;75.10;97302.69;5039319;28;20307;-80
2023/10/14 04:04:42;;;;;;;6.13;4.80;;;;;;;19.99;74.90;97307.25;5040348;28;20239;-80
2023/10/14 04:07:16;;;;;;;7.57;5.17;;;;;;;20.00;75.48;97298.97;5040671;28;20213;-80
2023/10/14 04:09:51;;;;;;;7.23;5.40;;;;;;;20.00;75.16;97314.25;5039863;28;20247;-80
2023/10/14 04:12:29;;;;;;;7.33;5.23;;;;;;;20.01;75.18;97324.81;5039508;28;20683;-81
2023/10/14 04:14:57;;;;;;;9.73;5.20;;;;;;;20.04;74.90;97323.59;5039538;28;20232;-81
2023/10/14 04:17:30;;;;;;;10.13;5.80;;;;;;;20.07;74.50;97348.25;5039208;28;20431;-81
2023/10/14 04:20:14;;;;;;;8.03;5.60;;;;;;;20.09;78.10;97394.50;5039635;28;20668;-81
2023/10/14 04:22:41;;;;;;;12.20;5.40;;;;;;;19.34;92.59;97419.56;5038000;28;20232;-81
2023/10/14 04:25:21;;;;;;;6.73;4.33;;;;;;;18.41;100.00;97416.13;5038358;28;20209;-80
2023/10/14 04:30:38;;;;;;;6.27;3.53;;;;;;;17.29;100.00;97429.47;5039648;28;20252;-80
2023/10/14 04:33:17;;;;;;;6.77;3.80;;;;;;;17.10;100.00;97438.63;5039689;28;20282;-81
2023/10/14 04:35:57;;;;;;;6.00;3.73;;;;;;;16.93;100.00;97446.72;5039094;28;20209;-80
2023/10/14 04:38:28;;;;;;;5.87;4.20;;;;;;;16.78;100.00;97441.19;5038639;28;20192;-80
2023/10/14 04:40:58;;;;;;;5.53;3.87;;;;;;;16.67;100.00;97437.97;5039039;28;20715;-80
2023/10/14 04:43:49;;;;;;;5.43;3.10;;;;;;;16.58;100.00;97433.59;5038086;28;20659;-80
2023/10/14 04:46:16;;;;;;;4.57;3.20;;;;;;;16.57;100.00;97438.09;5039175;28;20204;-80
2023/10/14 04:48:51;;;;;;;4.90;3.57;;;;;;;16.46;100.00;97441.03;5038611;28;20637;-80
2023/10/14 04:51:19;;;;;;;4.97;3.37;;;;;;;16.36;100.00;97450.09;5038055;28;20298;-79
2023/10/14 04:53:46;;;;;;;5.33;3.80;;;;;;;16.24;100.00;97452.22;5038220;28;20235;-79
2023/10/14 04:56:21;;;;;;;8.20;4.57;;;;;;;16.21;100.00;97449.84;5039541;28;20594;-79
2023/10/14 04:58:47;;;;;;;8.80;3.90;;;;;;;16.08;100.00;97450.44;5038962;28;20212;-79
2023/10/14 05:01:19;;;;;;;5.77;4.20;;;;;;;15.98;100.00;97455.00;5039246;28;20731;-79
2023/10/14 05:03:46;;;;;;;5.60;3.87;;;;;;;15.92;100.00;97451.16;5037432;28;20232;-79
2023/10/14 05:06:15;;;;;;;7.90;4.30;;;;;;;15.91;100.00;97453.97;5037877;28;20209;-79
2023/10/14 05:08:45;;;;;;;5.00;4.17;;;;;;;15.93;100.00;97452.81;5038196;28;20255;-79
2023/10/14 05:11:27;;;;;;;6.30;4.10;;;;;;;15.98;100.00;97456.69;5038044;28;20712;-79
2023/10/14 05:14:07;;;;;;;6.97;4.50;;;;;;;16.03;100.00;97458.91;5038004;28;20201;-80
2023/10/14 05:16:53;;;;;;;7.00;4.57;;;;;;;16.10;100.00;97455.44;5038609;28;20212;-80
2023/10/14 05:19:24;;;;;;;6.13;4.03;;;;;;;16.09;100.00;97451.09;5038768;28;20236;-80
2023/10/14 05:21:56;;;;;;;5.80;4.20;;;;;;;16.06;100.00;97457.75;5037291;28;20275;-80
2023/10/14 05:24:28;;;;;;;6.87;4.50;;;;;;;16.08;100.00;97468.09;5039445;28;20247;-80
2023/10/14 05:26:59;;;;;;;7.43;4.60;;;;;;;16.12;100.00;97467.78;5038530;28;20279;-79
2023/10/14 05:29:29;;;;;;;6.67;4.67;;;;;;;16.13;100.00;97468.47;5038812;28;20212;-80
2023/10/14 05:32:04;;;;;;;7.47;5.03;;;;;;;16.16;100.00;97476.13;5037941;28;20240;-80
2023/10/14 05:34:32;;;;;;;7.27;4.60;;;;;;;16.18;100.00;97479.50;5041450;28;20239;-80
2023/10/14 05:37:00;;;;;;;6.87;4.87;;;;;;;16.22;100.00;97486.19;5039884;28;20320;-80
2023/10/14 05:39:27;;;;;;;9.57;5.30;;;;;;;16.23;100.00;97495.88;5039181;28;20208;-79
2023/10/14 05:41:58;;;;;;;6.13;4.70;;;;;;;16.24;100.00;97492.22;5039233;28;20840;-80
2023/10/14 05:44:27;;;;;;;8.60;5.50;;;;;;;16.25;100.00;97490.38;5039301;28;20250;-80
2023/10/14 05:46:55;;;;;;;8.43;5.00;;;;;;;16.20;100.00;97495.31;5038837;28;20296;-80
2023/10/14 05:49:24;;;;;;;8.07;4.90;;;;;;;16.18;100.00;97490.16;5039706;28;20209;-80
2023/10/14 05:51:51;;;;;;;6.40;4.57;;;;;;;16.14;100.00;97494.13;5039054;28;20294;-79
2023/10/14 05:54:17;;;;;;;5.43;4.13;;;;;;;16.10;100.00;97506.09;5039392;28;20217;-79
2023/10/14 05:56:44;;;;;;;9.10;4.10;;;;;;;16.14;100.00;97503.94;5039890;28;20223;-79
2023/10/14 05:59:10;;;;;;;6.77;3.80;;;;;;;16.13;100.00;97521.78;5038240;28;20213;-82
2023/10/14 06:01:40;;;;;;;7.90;3.63;;;;;;;16.12;100.00;97511.28;5037375;28;20236;-82
2023/10/14 06:04:14;;;;;;;6.40;3.23;;;;;;;16.15;100.00;97514.47;5036527;28;20302;-82
2023/10/14 06:06:41;;;;;;;4.37;3.40;;;;;;;16.17;100.00;97508.97;5040345;28;20209;-83
2023/10/14 06:09:08;;;;;;;6.77;3.47;;;;;;;16.14;100.00;97510.13;5037250;28;20216;-83
2023/10/14 06:11:35;;;;;;;4.17;3.37;;;;;;;16.13;100.00;97517.44;5039086;28;20233;-85
2023/10/14 06:14:03;;;;;;;4.83;3.10;;;;;;;16.15;100.00;97517.13;5038904;28;20219;-85
2023/10/14 06:16:31;;;;;;;4.77;3.10;;;;;;;16.13;100.00;97522.78;5038023;28;20213;-84
2023/10/14 06:18:59;;;;;;;5.10;3.57;;;;;;;16.13;100.00;97524.44;5040676;28;20267;-84
2023/10/14 06:21:28;;;;;;;6.00;3.23;;;;;;;16.18;100.00;97532.81;5042919;28;20239;-81
2023/10/14 06:23:54;;;;;;;4.47;3.10;;;;;;;16.21;100.00;97535.16;5041958;28;20208;-84
2023/10/14 06:26:21;;;;;;;4.50;2.80;;;;;;;16.35;100.00;97541.78;5044811;28;20242;-84
2023/10/14 06:28:49;;;;;;;3.77;2.37;;;;;;;16.40;100.00;97553.66;5043702;28;20212;-83
2023/10/14 06:31:18;;;;;;;4.67;2.70;;;;;;;16.48;100.00;97545.75;5044180;28;20236;-84
2023/10/14 06:33:45;;;;;;;4.17;2.40;;;;;;;16.57;100.00;97549.31;5044726;28;20228;-84
2023/10/14 06:36:14;;;;;;;5.47;2.30;;;;;;;16.63;100.00;97559.34;5045856;28;20307;-83
2023/10/14 06:38:44;;;;;;;6.40;2.60;;;;;;;16.65;100.00;97558.19;5045133;28;20636;-83
2023/10/14 06:41:11;;;;;;;3.27;1.87;;;;;;;16.67;100.00;97556.22;5044259;28;20729;-84
2023/10/14 06:43:38;;;;;;;5.07;2.40;;;;;;;16.71;100.00;97560.22;5042944;28;20219;-85
2023/10/14 06:46:05;;;;;;;3.70;2.30;;;;;;;16.75;100.00;97560.72;5041379;28;20219;-84
2023/10/14 06:48:32;;;;;;;2.90;2.07;;;;;;;16.80;100.00;97561.94;5042372;28;20209;-84
2023/10/14 06:50:59;;;;;;;5.13;2.20;;;;;;;16.80;100.00;97559.28;5039502;28;20225;-84
2023/10/14 06:53:28;;;;;;;3.50;1.93;;;;;;;16.86;100.00;97573.81;5037457;28;20229;-84
2023/10/14 06:55:56;;;;;;;3.83;1.97;;;;;;;16.90;100.00;97567.19;5037432;28;20212;-84
2023/10/14 06:58:23;;;;;;;5.03;2.20;;;;;;;16.96;100.00;97564.69;5037581;28;20211;-84
2023/10/14 07:00:50;;;;;;;4.57;2.23;;;;;;;17.00;100.00;97570.59;5038658;28;20712;-84
2023/10/14 07:03:17;;;;;;;2.60;1.90;;;;;;;17.03;100.00;97573.75;5036460;28;20209;-83
2023/10/14 07:05:46;;;;;;;3.50;1.90;;;;;;;17.10;100.00;97569.47;5037292;28;20215;-84
2023/10/14 07:08:13;;;;;;;3.00;1.90;;;;;;;17.14;100.00;97581.47;5038089;28;20205;-84
2023/10/14 07:10:40;;;;;;;4.43;1.90;;;;;;;17.21;100.00;97582.53;5039434;28;20239;-82
2023/10/14 07:13:09;;;;;;;2.93;2.00;;;;;;;17.27;100.00;97591.72;5036809;28;20228;-84
2023/10/14 07:15:41;;;;;;;3.83;1.97;;;;;;;17.29;100.00;97603.94;5058318;28;20207;-81
2023/10/14 07:18:08;;;;;;;5.37;1.93;;;;;;;17.35;100.00;97605.09;5077920;28;20290;-85
2023/10/14 07:20:35;;;;;;;3.47;1.80;;;;;;;17.44;100.00;97599.66;5077777;28;20211;-76
2023/10/14 07:23:03;;;;;;;3.30;1.60;;;;;;;17.48;100.00;97595.69;5075629;28;20215;-80
2023/10/14 07:25:35;;;;;;;5.83;2.03;;;;;;;17.50;100.00;97596.34;5077029;28;20208;-81
2023/10/14 07:28:07;;;;;;;3.10;1.47;;;;;;;17.57;100.00;97592.06;5077000;28;20188;-80
2023/10/14 07:30:35;;;;;;;2.97;1.50;;;;;;;17.57;100.00;97592.06;5074828;28;20218;-80
2023/10/14 07:33:05;;;;;;;3.10;1.80;;;;;;;17.60;100.00;97589.03;5074739;28;20223;-80
2023/10/14 07:35:32;;;;;;;3.10;1.33;;;;;;;17.61;100.00;97584.56;5076043;28;20210;-81
2023/10/14 07:37:59;;;;;;;3.10;1.50;;;;;;;17.60;100.00;97583.69;5075768;28;20211;-80
2023/10/14 07:40:27;;;;;;;2.57;1.30;;;;;;;17.65;100.00;97570.69;5075981;28;20211;-80
2023/10/14 07:42:54;;;;;;;3.70;1.33;;;;;;;17.71;100.00;97570.03;5075283;28;20259;-80
2023/10/14 07:45:22;;;;;;;4.03;1.40;;;;;;;17.73;100.00;97570.69;5075548;28;20211;-80
2023/10/14 07:47:50;;;;;;;2.67;1.47;;;;;;;17.78;100.00;97571.06;5075325;28;20211;-80
2023/10/14 07:50:16;;;;;;;2.17;1.17;;;;;;;17.93;100.00;97574.75;5076241;28;20593;-80
2023/10/14 07:52:43;;;;;;;2.47;1.30;;;;;;;18.06;100.00;97574.28;5075698;28;20237;-80
2023/10/14 07:55:15;;;;;;;5.83;1.20;;;;;;;18.18;100.00;97571.13;5075338;28;20207;-79
2023/10/14 07:57:46;;;;;;;2.80;1.30;;;;;;;18.24;100.00;97572.28;5075760;28;20212;-79
2023/10/14 08:00:13;;;;;;;2.10;1.20;;;;;;;18.30;100.00;97563.59;5076387;28;20215;-79
2023/10/14 08:02:40;;;;;;;3.30;1.53;;;;;;;18.36;100.00;97571.78;5075921;28;20223;-79
2023/10/14 08:05:10;;;;;;;2.67;1.30;;;;;;;18.38;100.00;97583.19;5078168;28;20203;-79
2023/10/14 08:07:41;;;;;;;1.73;1.20;;;;;;;18.31;100.00;97600.91;5077844;28;20235;-79
2023/10/14 08:10:17;;;;;;;3.20;1.73;;;;;;;18.31;100.00;97608.09;5077302;28;20526;-79
2023/10/14 08:12:44;;;;;;;2.43;1.50;;;;;;;18.30;100.00;97609.88;5077671;28;20237;-79
2023/10/14 08:15:12;;;;;;;3.07;1.50;;;;;;;18.36;100.00;97617.28;5077650;28;20310;-79
2023/10/14 08:17:40;;;;;;;1.83;1.27;;;;;;;18.44;100.00;97617.31;5077096;28;20212;-79
2023/10/14 08:20:13;;;;;;;1.87;1.20;;;;;;;18.57;100.00;97606.94;5077348;28;20203;-79
2023/10/14 08:22:41;;;;;;;1.90;1.20;;;;;;;18.71;100.00;97614.25;5078201;28;20564;-79
2023/10/14 08:25:07;;;;;;;2.50;1.33;;;;;;;18.84;100.00;97609.22;5077428;28;20207;-81
2023/10/14 08:27:34;;;;;;;2.40;1.50;;;;;;;18.99;99.39;97604.88;5076489;28;20236;-78
2023/10/14 08:30:01;;;;;;;3.33;1.30;;;;;;;19.10;97.92;97609.03;5074391;28;20212;-79
2023/10/14 08:32:27;;;;;;;3.07;1.73;;;;;;;19.13;98.65;97614.06;5073804;28;20285;-79
2023/10/14 08:34:54;;;;;;;2.80;1.40;;;;;;;19.24;98.72;97611.84;5074052;28;20574;-80
2023/10/14 08:37:22;;;;;;;3.03;1.55;;;;;;;19.33;97.29;97610.00;5073825;28;20524;-80
2023/10/14 08:39:48;;;;;;;2.67;1.30;;;;;;;19.35;95.40;97608.81;5073123;28;20218;-81
2023/10/14 08:42:15;;;;;;;3.10;1.40;;;;;;;19.41;95.85;97613.47;5055618;28;20622;-80
2023/10/14 08:44:44;;;;;;;2.43;1.20;;;;;;;19.38;97.14;97611.13;5053687;28;20214;-80
2023/10/14 08:47:14;;;;;;;2.60;1.50;;;;;;;19.38;95.65;97616.50;5053355;28;20270;-80
2023/10/14 08:49:42;;;;;;;4.53;1.37;;;;;;;19.41;95.10;97605.44;5053611;28;20207;-80
2023/10/14 08:52:10;;;;;;;2.37;1.20;;;;;;;19.43;94.16;97611.47;5052762;28;20228;-80
2023/10/14 08:54:38;;;;;;;1.57;1.40;;;;;;;19.41;93.16;97612.63;5053343;28;20211;-80
2023/10/14 08:57:07;;;;;;;1.87;1.20;;;;;;;19.35;94.47;97613.31;5053297;28;20208;-80
2023/10/14 08:59:34;;;;;;;2.33;1.20;;;;;;;19.28;95.14;97633.78;5052029;28;20219;-80
2023/10/14 09:02:00;;;;;;;0.93;0.70;;;;;;;18.89;92.60;97648.91;5052511;28;20227;-80
2023/10/14 09:04:28;;;;;;;0.87;0.63;;;;;;;18.33;96.19;97668.47;5053303;28;20212;-80
2023/10/14 09:07:00;;;;;;;0.60;0.60;;;;;;;17.41;100.00;97720.22;5052869;28;20204;-81
2023/10/14 09:09:27;;;;;;;0.97;0.83;;;;;;;16.85;100.00;97698.44;5053009;28;20299;-80
2023/10/14 09:11:56;;;;;;;1.27;0.90;;;;;;;16.24;100.00;97712.69;5052919;28;20235;-81
2023/10/14 09:14:22;;;;;;;1.57;0.90;;;;;;;15.94;100.00;97729.00;5052950;28;20706;-81
2023/10/14 09:16:49;;;;;;;1.83;1.10;;;;;;;15.73;100.00;97722.25;5053629;28;20212;-81
2023/10/14 09:19:16;;;;;;;1.43;0.90;;;;;;;15.56;100.00;97747.00;5053064;28;20554;-81
2023/10/14 09:21:44;;;;;;;1.20;1.10;;;;;;;15.47;100.00;97737.22;5052402;28;20228;-77
2023/10/14 09:24:10;;;;;;;1.47;1.13;;;;;;;15.41;100.00;97732.47;5055277;28;20714;-82
2023/10/14 09:26:38;;;;;;;0.80;0.80;;;;;;;15.27;100.00;97730.25;5053955;28;20212;-82
2023/10/14 09:29:09;;;;;;;2.07;1.10;;;;;;;15.28;100.00;97731.94;5053847;28;20212;-82
2023/10/14 09:31:37;;;;;;;1.43;1.13;;;;;;;15.34;100.00;97744.69;5052477;28;20323;-82
2023/10/14 09:34:04;;;;;;;1.57;1.27;;;;;;;15.32;100.00;97744.84;5053925;28;20235;-82
2023/10/14 09:36:35;;;;;;;1.70;1.40;;;;;;;15.35;100.00;97746.38;5054194;28;20223;-82
2023/10/14 09:39:11;;;;;;;1.63;1.40;;;;;;;15.47;100.00;97753.22;5053765;28;20212;-82
2023/10/14 09:41:40;;;;;;;1.57;1.37;;;;;;;15.51;100.00;97750.09;5053192;28;20264;-82
2023/10/14 09:44:09;;;;;;;1.97;1.40;;;;;;;15.60;100.00;97745.72;5052877;28;20208;-77
2023/10/14 09:46:40;;;;;;;1.60;1.40;;;;;;;15.71;100.00;97745.53;5054996;28;20208;-83
2023/10/14 09:49:10;;;;;;;1.40;1.30;;;;;;;15.73;100.00;97733.75;5055961;28;20243;-82
2023/10/14 09:51:38;;;;;;;1.90;1.50;;;;;;;15.78;100.00;97735.97;5053450;28;20232;-82
2023/10/14 09:54:06;;;;;;;2.53;1.40;;;;;;;15.88;100.00;97736.78;5053441;28;20236;-82
2023/10/14 09:56:39;;;;;;;2.93;1.63;;;;;;;15.99;100.00;97740.06;5053390;28;20203;-82
2023/10/14 09:59:08;;;;;;;1.57;1.47;;;;;;;16.07;100.00;97737.47;5053369;28;20223;-82
2023/10/14 10:01:35;;;;;;;1.80;1.60;;;;;;;16.06;100.00;97743.00;5052856;28;20236;-82
2023/10/14 10:04:08;;;;;;;1.77;1.50;;;;;;;16.06;100.00;97735.81;5054043;28;20204;-81
2023/10/14 10:06:43;;;;;;;1.87;1.67;;;;;;;16.09;100.00;97735.53;5053528;28;20215;-82
2023/10/14 10:09:49;;;;;;;2.27;1.53;;;;;;;16.15;100.00;97746.41;5053743;28;20215;-81
2023/10/14 10:12:17;;;;;;;1.63;1.20;;;;;;;16.18;100.00;97735.47;5052821;28;20768;-82
2023/10/14 10:14:46;;;;;;;1.50;1.17;;;;;;;16.26;100.00;97742.69;5052795;28;20690;-82
2023/10/14 10:17:22;;;;;;;1.40;1.20;;;;;;;16.27;100.00;97745.22;5053911;28;20214;-82
2023/10/14 10:20:09;;;;;;;0.80;0.80;;;;;;;16.31;100.00;97741.28;5053337;28;20217;-82
2023/10/14 10:22:41;;;;;;;2.70;1.20;;;;;;;16.40;100.00;97744.91;5052278;28;20702;-81
2023/10/14 10:25:09;;;;;;;1.17;1.07;;;;;;;16.41;100.00;97731.38;5053344;28;20342;-82
2023/10/14 10:27:36;;;;;;;1.30;1.20;;;;;;;16.57;100.00;97744.91;5053542;28;20303;-82
2023/10/14 10:30:07;;;;;;;1.27;1.00;;;;;;;16.69;100.00;97743.66;5053642;28;20204;-82
2023/10/14 10:32:34;;;;;;;1.27;1.00;;;;;;;16.71;100.00;97746.19;5053425;28;20263;-82
2023/10/14 10:35:16;;;;;;;1.63;1.03;;;;;;;16.77;100.00;97738.41;5053164;28;20232;-80
2023/10/14 10:37:47;;;;;;;1.20;1.10;;;;;;;16.85;100.00;97746.50;5052771;28;20214;-81
2023/10/14 10:40:17;;;;;;;1.47;1.00;;;;;;;16.80;100.00;97745.25;5053089;28;20274;-80
2023/10/14 10:42:46;;;;;;;2.33;1.07;;;;;;;16.70;100.00;97737.34;5052236;28;20719;-81
2023/10/14 10:45:20;;;;;;;1.27;1.00;;;;;;;16.52;100.00;97738.34;5052754;28;20204;-82
2023/10/14 10:47:51;;;;;;;1.33;0.93;;;;;;;16.49;100.00;97744.81;5052877;28;20207;-81
2023/10/14 10:50:18;;;;;;;1.30;0.93;;;;;;;16.49;100.00;97750.16;5053402;28;20577;-82
2023/10/14 10:52:54;;;;;;;1.13;1.00;;;;;;;16.53;100.00;97756.84;5052157;28;20597;-82
2023/10/14 10:55:23;;;;;;;1.30;1.20;;;;;;;16.49;100.00;97752.81;5052804;28;20243;-82
2023/10/14 10:57:56;;;;;;;1.20;1.10;;;;;;;16.48;100.00;97740.47;5052289;28;20390;-82
2023/10/14 11:00:24;;;;;;;1.67;1.20;;;;;;;16.32;100.00;97740.28;5053007;28;20216;-82
2023/10/14 11:02:54;;;;;;;1.50;1.40;;;;;;;16.21;100.00;97745.81;5051945;28;20229;-81
2023/10/14 11:05:25;;;;;;;1.77;1.10;;;;;;;16.21;100.00;97750.34;5056093;28;20212;-82
2023/10/14 11:07:52;;;;;;;1.87;1.20;;;;;;;16.17;100.00;97747.13;5055554;28;20215;-82
2023/10/14 11:10:22;;;;;;;1.53;1.30;;;;;;;16.13;100.00;97752.06;5056022;28;20208;-82
2023/10/14 11:12:49;;;;;;;1.20;1.10;;;;;;;15.86;100.00;97760.03;5056412;28;20228;-82
2023/10/14 11:15:19;;;;;;;3.27;1.20;;;;;;;15.65;100.00;97768.25;5056988;28;20583;-81
2023/10/14 11:17:52;;;;;;;2.53;1.40;;;;;;;15.58;100.00;97766.34;5057732;28;20212;-81
2023/10/14 11:20:18;;;;;;;1.50;1.40;;;;;;;15.51;100.00;97762.59;5057932;28;20303;-81
2023/10/14 11:22:45;;;;;;;1.00;1.00;;;;;;;15.50;100.00;97763.56;5056287;28;20228;-81
2023/10/14 11:25:12;;;;;;;1.93;1.10;;;;;;;15.42;100.00;97771.44;5057110;28;20204;-81
2023/10/14 11:27:41;;;;;;;1.53;1.17;;;;;;;15.37;100.00;97763.88;5057007;28;20262;-82
2023/10/14 11:30:11;;;;;;;1.23;1.13;;;;;;;15.31;100.00;97760.91;5057581;28;20216;-82
2023/10/14 11:32:47;;;;;;;1.40;1.00;;;;;;;15.25;100.00;97750.84;5057816;28;20238;-82
2023/10/14 11:35:16;;;;;;;1.43;1.20;;;;;;;15.08;100.00;97751.56;5058630;28;20224;-79
2023/10/14 11:37:44;;;;;;;3.37;1.50;;;;;;;15.09;100.00;97747.94;5058800;28;20208;-79
2023/10/14 11:40:13;;;;;;;2.00;1.23;;;;;;;15.02;100.00;97758.31;5058851;28;20708;-79
2023/10/14 11:42:39;;;;;;;2.47;1.07;;;;;;;15.00;100.00;97760.28;5057568;28;20303;-79
2023/10/14 11:45:07;;;;;;;1.73;1.30;;;;;;;14.96;100.00;97768.72;5057238;28;20202;-79
2023/10/14 11:47:36;;;;;;;1.87;1.30;;;;;;;14.95;100.00;97762.53;5057056;28;20219;-78